首页
METAR-TAF:

METAR-TAF

机场 :

海參崴國際機場

海參崴, 俄罗斯

纬度: 43-07N, 经度: 131-56E, 海拔: 184米

当前天气观测

该预报发布于28分钟前的17:30 UTC
静风
温度 13°C
湿度 100%
气压 1002 hPa
能见度10公里或以上

METAR: UHWW 231730Z 00000MPS 9999 NSC 13/13 Q1002 R25L/0///70 TEMPO 0300 FG VV002 RMK QFE750

时间: 03:58 (17:58 UTC)

预报

该预报发布于58分钟前的17:00 UTC
预报有效从23日的 18点(UTC)到 24日的 18点(UTC)
风速6节,风向
能見度: 3100
多云层高于1100英尺
轻雾
短暂存在
从 23日的 18点(UTC)到 23日的 19点(UTC)
能見度: 0300
层高于200英尺
成为
从 23日的 19点(UTC)到 23日的 20点(UTC)
能見度: 0300
层高于200英尺
成为
从 23日的 21点(UTC)到 23日的 23点(UTC)
能見度: 3100
多云层高于1100英尺
轻雾
从 24日的 0300点(UTC)
风速6节,风向
能见度10公里或以上
散云层高于3000英尺
短暂存在
从 24日的 03点(UTC)到 24日的 11点(UTC)
能見度: 3500
多云层高于1500英尺, 积雨云.
小阵雨
成为
从 24日的 13点(UTC)到 24日的 14点(UTC)
风速2节,风向多变

TAF: UHWW 231700Z 2318/2418 35003MPS 3100 BR BKN011 TEMPO 2318/2319 0300 FG VV002 BECMG 2319/2320 0300 FG VV002 BECMG 2321/2323 3100 BR BKN011 FM240300 36003MPS 9999 SCT030 TEMPO 2403/2411 3500 -SHRA BKN015CB BECMG 2413/2414 VRB01MPS

超过4000个机场的气象观测和天气预报(METAR&TAF报告)。

可查询的气象台以黄色和红色小点在地图上表示。

将鼠标移到小点上方,可查看气象台名称。

然后点击查看天气观测和预报。

如需切换地图:点击带黑十字的绿色按钮放大地图;点击带横线的绿色按钮缩小地图;或者点击绿色箭头查看邻近地区的地图。


METAR-TAF: